sensor_id;sensor_type;location;lat;lon;timestamp;temperature;humidity
7572;DHT22;3827;49.928;8.548;2023-04-01T00:00:50;10.30;1.00
7572;DHT22;3827;49.928;8.548;2023-04-01T00:03:17;10.30;99.90
7572;DHT22;3827;49.928;8.548;2023-04-01T00:05:45;10.30;99.90
7572;DHT22;3827;49.928;8.548;2023-04-01T00:08:12;10.20;99.90
7572;DHT22;3827;49.928;8.548;2023-04-01T00:10:39;10.30;99.90
7572;DHT22;3827;49.928;8.548;2023-04-01T00:13:06;10.20;1.00
7572;DHT22;3827;49.928;8.548;2023-04-01T00:15:34;10.20;1.00
7572;DHT22;3827;49.928;8.548;2023-04-01T00:18:02;10.20;1.00
7572;DHT22;3827;49.928;8.548;2023-04-01T00:20:29;10.30;99.90
7572;DHT22;3827;49.928;8.548;2023-04-01T00:22:56;10.20;99.90
7572;DHT22;3827;49.928;8.548;2023-04-01T00:25:23;10.20;99.90
7572;DHT22;3827;49.928;8.548;2023-04-01T00:27:50;10.40;99.90
7572;DHT22;3827;49.928;8.548;2023-04-01T00:30:17;10.30;99.90
7572;DHT22;3827;49.928;8.548;2023-04-01T00:32:46;10.20;99.90
7572;DHT22;3827;49.928;8.548;2023-04-01T00:35:13;10.20;99.90
7572;DHT22;3827;49.928;8.548;2023-04-01T00:37:39;10.20;99.90
7572;DHT22;3827;49.928;8.548;2023-04-01T00:40:08;10.10;99.90
7572;DHT22;3827;49.928;8.548;2023-04-01T00:42:44;10.10;99.90
7572;DHT22;3827;49.928;8.548;2023-04-01T00:45:29;10.10;99.90
7572;DHT22;3827;49.928;8.548;2023-04-01T00:48:01;10.10;99.90
7572;DHT22;3827;49.928;8.548;2023-04-01T00:50:29;10.10;99.90
7572;DHT22;3827;49.928;8.548;2023-04-01T00:52:58;10.10;99.90
7572;DHT22;3827;49.928;8.548;2023-04-01T00:55:26;10.10;99.90
7572;DHT22;3827;49.928;8.548;2023-04-01T00:57:54;10.10;99.90
7572;DHT22;3827;49.928;8.548;2023-04-01T01:00:23;10.10;99.90
7572;DHT22;3827;49.928;8.548;2023-04-01T01:02:52;10.10;99.90
7572;DHT22;3827;49.928;8.548;2023-04-01T01:05:23;10.10;99.90
7572;DHT22;3827;49.928;8.548;2023-04-01T01:08:01;10.20;99.90
7572;DHT22;3827;49.928;8.548;2023-04-01T01:10:32;10.10;99.90
7572;DHT22;3827;49.928;8.548;2023-04-01T01:13:05;10.40;99.90
7572;DHT22;3827;49.928;8.548;2023-04-01T01:15:39;10.10;99.90
7572;DHT22;3827;49.928;8.548;2023-04-01T01:18:16;10.00;99.90
7572;DHT22;3827;49.928;8.548;2023-04-01T01:21:10;10.00;99.90
7572;DHT22;3827;49.928;8.548;2023-04-01T01:23:57;10.00;99.90
7572;DHT22;3827;49.928;8.548;2023-04-01T01:26:52;10.00;99.90
7572;DHT22;3827;49.928;8.548;2023-04-01T01:32:30;10.10;99.90
7572;DHT22;3827;49.928;8.548;2023-04-01T01:35:19;10.00;99.90
7572;DHT22;3827;49.928;8.548;2023-04-01T01:37:49;10.10;99.90
7572;DHT22;3827;49.928;8.548;2023-04-01T01:40:18;10.10;99.90
7572;DHT22;3827;49.928;8.548;2023-04-01T01:42:49;10.10;99.90
7572;DHT22;3827;49.928;8.548;2023-04-01T01:45:20;10.00;99.90
7572;DHT22;3827;49.928;8.548;2023-04-01T01:47:49;10.00;99.90
7572;DHT22;3827;49.928;8.548;2023-04-01T01:50:19;10.00;99.90
7572;DHT22;3827;49.928;8.548;2023-04-01T01:52:47;10.00;99.90
7572;DHT22;3827;49.928;8.548;2023-04-01T01:55:27;10.50;99.90
7572;DHT22;3827;49.928;8.548;2023-04-01T01:57:56;10.00;99.90
7572;DHT22;3827;49.928;8.548;2023-04-01T02:00:24;10.00;99.90
7572;DHT22;3827;49.928;8.548;2023-04-01T02:02:52;10.00;99.90
7572;DHT22;3827;49.928;8.548;2023-04-01T02:05:23;10.00;99.90
7572;DHT22;3827;49.928;8.548;2023-04-01T02:07:57;10.00;99.90
7572;DHT22;3827;49.928;8.548;2023-04-01T02:10:27;10.00;99.90
7572;DHT22;3827;49.928;8.548;2023-04-01T02:12:58;10.00;99.90
7572;DHT22;3827;49.928;8.548;2023-04-01T02:15:28;9.90;99.90
7572;DHT22;3827;49.928;8.548;2023-04-01T02:17:58;10.30;99.90
7572;DHT22;3827;49.928;8.548;2023-04-01T02:20:29;9.90;99.90
7572;DHT22;3827;49.928;8.548;2023-04-01T02:22:57;9.90;99.90
7572;DHT22;3827;49.928;8.548;2023-04-01T02:25:27;9.90;99.90
7572;DHT22;3827;49.928;8.548;2023-04-01T02:27:55;9.90;99.90
7572;DHT22;3827;49.928;8.548;2023-04-01T02:30:23;9.80;99.90
7572;DHT22;3827;49.928;8.548;2023-04-01T02:32:53;9.80;1.00
7572;DHT22;3827;49.928;8.548;2023-04-01T02:35:20;9.80;1.00
7572;DHT22;3827;49.928;8.548;2023-04-01T02:37:49;9.80;1.00
7572;DHT22;3827;49.928;8.548;2023-04-01T02:40:17;9.80;1.00
7572;DHT22;3827;49.928;8.548;2023-04-01T02:42:44;9.80;1.00
7572;DHT22;3827;49.928;8.548;2023-04-01T02:45:12;9.70;1.00
7572;DHT22;3827;49.928;8.548;2023-04-01T02:47:39;9.80;1.00
7572;DHT22;3827;49.928;8.548;2023-04-01T02:50:07;9.70;5.30
7572;DHT22;3827;49.928;8.548;2023-04-01T02:52:34;9.70;99.90
7572;DHT22;3827;49.928;8.548;2023-04-01T02:55:03;9.70;99.90
7572;DHT22;3827;49.928;8.548;2023-04-01T02:57:30;9.70;99.90
7572;DHT22;3827;49.928;8.548;2023-04-01T02:59:57;9.70;99.90
7572;DHT22;3827;49.928;8.548;2023-04-01T03:02:24;9.70;99.90
7572;DHT22;3827;49.928;8.548;2023-04-01T03:04:51;9.70;99.90
7572;DHT22;3827;49.928;8.548;2023-04-01T03:07:18;9.60;99.90
7572;DHT22;3827;49.928;8.548;2023-04-01T03:09:44;9.60;99.90
7572;DHT22;3827;49.928;8.548;2023-04-01T03:12:13;9.60;99.90
7572;DHT22;3827;49.928;8.548;2023-04-01T03:14:39;9.70;99.90
7572;DHT22;3827;49.928;8.548;2023-04-01T03:17:06;9.60;99.90
7572;DHT22;3827;49.928;8.548;2023-04-01T03:19:33;9.60;99.90
7572;DHT22;3827;49.928;8.548;2023-04-01T03:22:00;9.70;62.40
7572;DHT22;3827;49.928;8.548;2023-04-01T03:24:27;9.60;99.90
7572;DHT22;3827;49.928;8.548;2023-04-01T03:26:53;9.70;92.20
7572;DHT22;3827;49.928;8.548;2023-04-01T03:29:22;9.80;1.00
7572;DHT22;3827;49.928;8.548;2023-04-01T03:31:48;9.70;73.10
7572;DHT22;3827;49.928;8.548;2023-04-01T03:34:15;9.80;1.00
7572;DHT22;3827;49.928;8.548;2023-04-01T03:36:42;9.70;1.00
7572;DHT22;3827;49.928;8.548;2023-04-01T03:39:09;9.80;1.00
7572;DHT22;3827;49.928;8.548;2023-04-01T03:41:36;9.80;25.40
7572;DHT22;3827;49.928;8.548;2023-04-01T03:44:03;9.80;1.00
7572;DHT22;3827;49.928;8.548;2023-04-01T03:46:32;9.90;1.00
7572;DHT22;3827;49.928;8.548;2023-04-01T03:48:58;9.80;12.40
7572;DHT22;3827;49.928;8.548;2023-04-01T03:51:25;9.80;1.70
7572;DHT22;3827;49.928;8.548;2023-04-01T03:53:52;9.80;21.70
7572;DHT22;3827;49.928;8.548;2023-04-01T03:56:19;9.80;4.00
7572;DHT22;3827;49.928;8.548;2023-04-01T03:58:45;9.80;1.00
7572;DHT22;3827;49.928;8.548;2023-04-01T04:01:18;9.70;1.00
7572;DHT22;3827;49.928;8.548;2023-04-01T04:03:48;9.80;1.00
7572;DHT22;3827;49.928;8.548;2023-04-01T04:06:16;9.90;1.00
7572;DHT22;3827;49.928;8.548;2023-04-01T04:08:43;9.80;1.00
7572;DHT22;3827;49.928;8.548;2023-04-01T04:11:11;10.30;1.00
7572;DHT22;3827;49.928;8.548;2023-04-01T04:13:38;9.90;1.00
7572;DHT22;3827;49.928;8.548;2023-04-01T04:16:05;9.90;1.00
7572;DHT22;3827;49.928;8.548;2023-04-01T04:18:32;9.90;1.00
7572;DHT22;3827;49.928;8.548;2023-04-01T04:21:01;9.90;1.00
7572;DHT22;3827;49.928;8.548;2023-04-01T04:23:28;9.90;1.00
7572;DHT22;3827;49.928;8.548;2023-04-01T04:25:56;9.90;1.00
7572;DHT22;3827;49.928;8.548;2023-04-01T04:28:25;10.10;1.00
7572;DHT22;3827;49.928;8.548;2023-04-01T04:30:52;9.80;1.00
7572;DHT22;3827;49.928;8.548;2023-04-01T04:33:19;9.80;1.00
7572;DHT22;3827;49.928;8.548;2023-04-01T04:35:45;9.90;1.00
7572;DHT22;3827;49.928;8.548;2023-04-01T04:38:14;9.90;1.00
7572;DHT22;3827;49.928;8.548;2023-04-01T04:40:41;9.90;1.00
7572;DHT22;3827;49.928;8.548;2023-04-01T04:43:10;9.90;1.00
7572;DHT22;3827;49.928;8.548;2023-04-01T04:45:37;9.90;1.00
7572;DHT22;3827;49.928;8.548;2023-04-01T04:48:04;10.00;1.00
7572;DHT22;3827;49.928;8.548;2023-04-01T04:50:31;9.90;1.00
7572;DHT22;3827;49.928;8.548;2023-04-01T04:52:58;9.90;1.00
7572;DHT22;3827;49.928;8.548;2023-04-01T04:55:26;10.10;1.00
7572;DHT22;3827;49.928;8.548;2023-04-01T04:57:53;9.90;1.00
7572;DHT22;3827;49.928;8.548;2023-04-01T05:00:20;9.90;1.00
7572;DHT22;3827;49.928;8.548;2023-04-01T05:02:46;9.90;1.00
7572;DHT22;3827;49.928;8.548;2023-04-01T05:05:13;10.00;1.00
7572;DHT22;3827;49.928;8.548;2023-04-01T05:07:40;9.90;1.00
7572;DHT22;3827;49.928;8.548;2023-04-01T05:10:08;9.90;1.00
7572;DHT22;3827;49.928;8.548;2023-04-01T05:12:36;9.90;1.00
7572;DHT22;3827;49.928;8.548;2023-04-01T05:15:05;9.90;1.00
7572;DHT22;3827;49.928;8.548;2023-04-01T05:17:31;9.90;1.00
7572;DHT22;3827;49.928;8.548;2023-04-01T05:19:58;9.90;1.00
7572;DHT22;3827;49.928;8.548;2023-04-01T05:22:25;10.00;1.00
7572;DHT22;3827;49.928;8.548;2023-04-01T05:24:52;9.90;1.00
7572;DHT22;3827;49.928;8.548;2023-04-01T05:27:19;9.90;1.00
7572;DHT22;3827;49.928;8.548;2023-04-01T05:29:47;9.90;1.00
7572;DHT22;3827;49.928;8.548;2023-04-01T05:32:14;10.20;31.70
7572;DHT22;3827;49.928;8.548;2023-04-01T05:34:41;9.90;24.10
7572;DHT22;3827;49.928;8.548;2023-04-01T05:37:08;9.90;63.40
7572;DHT22;3827;49.928;8.548;2023-04-01T05:39:36;9.90;99.90
7572;DHT22;3827;49.928;8.548;2023-04-01T05:42:05;10.00;99.90
7572;DHT22;3827;49.928;8.548;2023-04-01T05:44:32;9.90;99.90
7572;DHT22;3827;49.928;8.548;2023-04-01T05:47:00;9.90;99.90
7572;DHT22;3827;49.928;8.548;2023-04-01T05:49:27;9.90;99.90
7572;DHT22;3827;49.928;8.548;2023-04-01T05:51:54;9.90;99.90
7572;DHT22;3827;49.928;8.548;2023-04-01T05:54:21;9.90;99.90
7572;DHT22;3827;49.928;8.548;2023-04-01T05:56:48;9.90;34.00
7572;DHT22;3827;49.928;8.548;2023-04-01T05:59:15;9.80;99.90
7572;DHT22;3827;49.928;8.548;2023-04-01T06:01:42;9.90;99.90
7572;DHT22;3827;49.928;8.548;2023-04-01T06:04:13;9.80;99.90
7572;DHT22;3827;49.928;8.548;2023-04-01T06:06:43;9.80;99.90
7572;DHT22;3827;49.928;8.548;2023-04-01T06:09:14;9.80;99.90
7572;DHT22;3827;49.928;8.548;2023-04-01T06:11:51;9.80;99.90
7572;DHT22;3827;49.928;8.548;2023-04-01T06:14:31;9.80;75.60
7572;DHT22;3827;49.928;8.548;2023-04-01T06:17:13;9.80;31.30
7572;DHT22;3827;49.928;8.548;2023-04-01T06:19:50;9.90;42.40
7572;DHT22;3827;49.928;8.548;2023-04-01T06:22:47;10.40;1.00
7572;DHT22;3827;49.928;8.548;2023-04-01T06:25:35;10.00;1.00
7572;DHT22;3827;49.928;8.548;2023-04-01T06:31:07;10.10;1.00
7572;DHT22;3827;49.928;8.548;2023-04-01T06:33:58;10.10;1.00
7572;DHT22;3827;49.928;8.548;2023-04-01T06:36:48;10.20;1.00
7572;DHT22;3827;49.928;8.548;2023-04-01T06:39:27;10.20;1.00
7572;DHT22;3827;49.928;8.548;2023-04-01T06:42:19;10.20;1.00
7572;DHT22;3827;49.928;8.548;2023-04-01T06:44:59;10.30;99.90
7572;DHT22;3827;49.928;8.548;2023-04-01T06:47:42;10.30;99.90
7572;DHT22;3827;49.928;8.548;2023-04-01T06:50:19;10.20;99.90
7572;DHT22;3827;49.928;8.548;2023-04-01T06:52:55;10.20;1.00
7572;DHT22;3827;49.928;8.548;2023-04-01T06:55:28;10.20;1.00
7572;DHT22;3827;49.928;8.548;2023-04-01T06:58:00;10.20;1.00
7572;DHT22;3827;49.928;8.548;2023-04-01T07:00:32;10.10;1.00
7572;DHT22;3827;49.928;8.548;2023-04-01T07:03:06;10.10;12.90
7572;DHT22;3827;49.928;8.548;2023-04-01T07:05:37;10.00;99.90
7572;DHT22;3827;49.928;8.548;2023-04-01T07:08:09;10.10;99.90
7572;DHT22;3827;49.928;8.548;2023-04-01T07:10:43;10.10;1.00
7572;DHT22;3827;49.928;8.548;2023-04-01T07:13:15;10.10;1.00
7572;DHT22;3827;49.928;8.548;2023-04-01T07:15:54;10.10;1.00
7572;DHT22;3827;49.928;8.548;2023-04-01T07:18:25;10.20;1.00
7572;DHT22;3827;49.928;8.548;2023-04-01T07:20:55;10.40;1.00
7572;DHT22;3827;49.928;8.548;2023-04-01T07:23:26;10.50;1.00
7572;DHT22;3827;49.928;8.548;2023-04-01T07:25:59;10.60;1.00
7572;DHT22;3827;49.928;8.548;2023-04-01T07:28:30;10.60;99.90
7572;DHT22;3827;49.928;8.548;2023-04-01T07:31:05;10.60;1.00
7572;DHT22;3827;49.928;8.548;2023-04-01T07:33:41;10.60;1.00
7572;DHT22;3827;49.928;8.548;2023-04-01T07:36:17;10.80;1.00
7572;DHT22;3827;49.928;8.548;2023-04-01T07:38:57;10.80;1.00
7572;DHT22;3827;49.928;8.548;2023-04-01T07:41:35;10.80;1.00
7572;DHT22;3827;49.928;8.548;2023-04-01T07:44:10;10.80;1.00
7572;DHT22;3827;49.928;8.548;2023-04-01T07:46:59;10.90;1.00
7572;DHT22;3827;49.928;8.548;2023-04-01T07:49:35;10.80;1.00
7572;DHT22;3827;49.928;8.548;2023-04-01T07:52:09;10.90;1.00
7572;DHT22;3827;49.928;8.548;2023-04-01T07:54:46;11.00;1.00
7572;DHT22;3827;49.928;8.548;2023-04-01T07:57:18;11.00;1.00
7572;DHT22;3827;49.928;8.548;2023-04-01T07:59:55;10.90;1.00
7572;DHT22;3827;49.928;8.548;2023-04-01T08:02:31;11.00;1.00
7572;DHT22;3827;49.928;8.548;2023-04-01T08:05:06;11.00;99.90
7572;DHT22;3827;49.928;8.548;2023-04-01T08:07:45;11.00;99.90
7572;DHT22;3827;49.928;8.548;2023-04-01T08:10:19;11.00;1.00
7572;DHT22;3827;49.928;8.548;2023-04-01T08:12:57;11.00;1.00
7572;DHT22;3827;49.928;8.548;2023-04-01T08:15:28;11.10;99.90
7572;DHT22;3827;49.928;8.548;2023-04-01T08:18:06;11.00;1.00
7572;DHT22;3827;49.928;8.548;2023-04-01T08:20:39;11.10;1.00
7572;DHT22;3827;49.928;8.548;2023-04-01T08:23:12;11.00;1.00
7572;DHT22;3827;49.928;8.548;2023-04-01T08:25:46;10.90;1.00
7572;DHT22;3827;49.928;8.548;2023-04-01T08:28:19;10.90;96.70
7572;DHT22;3827;49.928;8.548;2023-04-01T08:30:52;10.80;1.00
7572;DHT22;3827;49.928;8.548;2023-04-01T08:33:24;10.70;1.00
7572;DHT22;3827;49.928;8.548;2023-04-01T08:35:56;10.60;1.00
7572;DHT22;3827;49.928;8.548;2023-04-01T08:38:30;10.50;1.00
7572;DHT22;3827;49.928;8.548;2023-04-01T08:41:12;10.40;1.00
7572;DHT22;3827;49.928;8.548;2023-04-01T08:47:04;10.20;1.00
7572;DHT22;3827;49.928;8.548;2023-04-01T08:49:49;10.20;1.00
7572;DHT22;3827;49.928;8.548;2023-04-01T08:52:36;10.70;1.00
7572;DHT22;3827;49.928;8.548;2023-04-01T08:55:23;10.20;99.90
7572;DHT22;3827;49.928;8.548;2023-04-01T08:58:06;10.20;1.00
7572;DHT22;3827;49.928;8.548;2023-04-01T09:00:43;10.30;1.00
7572;DHT22;3827;49.928;8.548;2023-04-01T09:03:42;10.30;1.00
7572;DHT22;3827;49.928;8.548;2023-04-01T09:06:35;10.40;1.00
7572;DHT22;3827;49.928;8.548;2023-04-01T09:12:36;10.40;99.90
7572;DHT22;3827;49.928;8.548;2023-04-01T09:15:33;10.50;90.60
7572;DHT22;3827;49.928;8.548;2023-04-01T09:21:17;10.60;99.90
7572;DHT22;3827;49.928;8.548;2023-04-01T09:27:04;10.70;99.90
7572;DHT22;3827;49.928;8.548;2023-04-01T09:35:37;10.70;99.90
7572;DHT22;3827;49.928;8.548;2023-04-01T09:38:19;10.60;99.90
7572;DHT22;3827;49.928;8.548;2023-04-01T09:40:53;10.60;99.90
7572;DHT22;3827;49.928;8.548;2023-04-01T09:43:28;10.60;99.90
7572;DHT22;3827;49.928;8.548;2023-04-01T09:46:11;10.60;99.90
7572;DHT22;3827;49.928;8.548;2023-04-01T09:48:52;10.60;99.90
7572;DHT22;3827;49.928;8.548;2023-04-01T09:51:29;10.60;99.90
7572;DHT22;3827;49.928;8.548;2023-04-01T09:54:08;10.60;99.90
7572;DHT22;3827;49.928;8.548;2023-04-01T09:56:55;10.60;99.90
7572;DHT22;3827;49.928;8.548;2023-04-01T10:02:52;10.60;99.90
7572;DHT22;3827;49.928;8.548;2023-04-01T10:05:55;10.60;99.90
7572;DHT22;3827;49.928;8.548;2023-04-01T10:12:04;10.60;99.90
7572;DHT22;3827;49.928;8.548;2023-04-01T10:21:16;11.00;99.90
7572;DHT22;3827;49.928;8.548;2023-04-01T10:24:30;11.20;99.90
7572;DHT22;3827;49.928;8.548;2023-04-01T10:30:13;11.00;99.90
7572;DHT22;3827;49.928;8.548;2023-04-01T10:33:15;11.00;99.90
7572;DHT22;3827;49.928;8.548;2023-04-01T10:42:11;10.90;99.90
7572;DHT22;3827;49.928;8.548;2023-04-01T10:45:07;10.90;99.90
7572;DHT22;3827;49.928;8.548;2023-04-01T10:54:15;10.90;99.90
7572;DHT22;3827;49.928;8.548;2023-04-01T10:56:52;11.00;99.90
7572;DHT22;3827;49.928;8.548;2023-04-01T10:59:50;11.00;99.90
7572;DHT22;3827;49.928;8.548;2023-04-01T11:06:05;11.20;99.90
7572;DHT22;3827;49.928;8.548;2023-04-01T11:09:10;11.20;99.90
7572;DHT22;3827;49.928;8.548;2023-04-01T11:21:48;11.60;99.90
7572;DHT22;3827;49.928;8.548;2023-04-01T11:24:35;11.60;99.90
7572;DHT22;3827;49.928;8.548;2023-04-01T11:27:15;11.60;99.90
7572;DHT22;3827;49.928;8.548;2023-04-01T11:29:58;11.70;99.90
7572;DHT22;3827;49.928;8.548;2023-04-01T11:32:38;11.70;99.90
7572;DHT22;3827;49.928;8.548;2023-04-01T11:35:48;11.60;99.90
7572;DHT22;3827;49.928;8.548;2023-04-01T11:38:34;11.60;99.90
7572;DHT22;3827;49.928;8.548;2023-04-01T11:41:18;11.60;99.90
7572;DHT22;3827;49.928;8.548;2023-04-01T11:43:54;11.60;99.90
7572;DHT22;3827;49.928;8.548;2023-04-01T11:46:36;11.60;99.90
7572;DHT22;3827;49.928;8.548;2023-04-01T11:49:20;11.50;99.90
7572;DHT22;3827;49.928;8.548;2023-04-01T11:52:04;11.50;99.90
7572;DHT22;3827;49.928;8.548;2023-04-01T11:54:55;11.50;99.90
7572;DHT22;3827;49.928;8.548;2023-04-01T11:57:49;11.60;99.90
7572;DHT22;3827;49.928;8.548;2023-04-01T12:00:33;11.70;99.90
7572;DHT22;3827;49.928;8.548;2023-04-01T12:03:16;11.60;99.90
7572;DHT22;3827;49.928;8.548;2023-04-01T12:05:51;11.60;99.90
7572;DHT22;3827;49.928;8.548;2023-04-01T12:08:31;11.60;99.90
7572;DHT22;3827;49.928;8.548;2023-04-01T12:11:06;11.60;99.90
7572;DHT22;3827;49.928;8.548;2023-04-01T12:13:45;11.60;99.90
7572;DHT22;3827;49.928;8.548;2023-04-01T12:16:29;11.70;99.90
7572;DHT22;3827;49.928;8.548;2023-04-01T12:19:11;11.60;99.90
7572;DHT22;3827;49.928;8.548;2023-04-01T12:21:44;11.60;99.90
7572;DHT22;3827;49.928;8.548;2023-04-01T12:24:36;11.60;99.90
7572;DHT22;3827;49.928;8.548;2023-04-01T12:27:20;11.60;99.90
7572;DHT22;3827;49.928;8.548;2023-04-01T12:30:02;11.60;99.90
7572;DHT22;3827;49.928;8.548;2023-04-01T12:32:38;11.70;99.90
7572;DHT22;3827;49.928;8.548;2023-04-01T12:35:22;12.00;99.90
7572;DHT22;3827;49.928;8.548;2023-04-01T12:38:15;11.80;99.90
7572;DHT22;3827;49.928;8.548;2023-04-01T12:41:03;11.70;99.90
7572;DHT22;3827;49.928;8.548;2023-04-01T12:43:59;11.60;99.90
7572;DHT22;3827;49.928;8.548;2023-04-01T12:46:42;11.60;99.90
7572;DHT22;3827;49.928;8.548;2023-04-01T12:49:28;11.50;99.90
7572;DHT22;3827;49.928;8.548;2023-04-01T12:52:05;11.60;99.90
7572;DHT22;3827;49.928;8.548;2023-04-01T12:55:00;11.70;99.90
7572;DHT22;3827;49.928;8.548;2023-04-01T12:57:57;11.80;99.90
7572;DHT22;3827;49.928;8.548;2023-04-01T13:03:43;11.50;99.90
7572;DHT22;3827;49.928;8.548;2023-04-01T13:06:41;11.30;99.90
7572;DHT22;3827;49.928;8.548;2023-04-01T13:09:19;11.20;99.90
7572;DHT22;3827;49.928;8.548;2023-04-01T13:12:05;11.20;99.90
7572;DHT22;3827;49.928;8.548;2023-04-01T13:15:01;11.20;99.90
7572;DHT22;3827;49.928;8.548;2023-04-01T13:17:36;11.10;99.90
7572;DHT22;3827;49.928;8.548;2023-04-01T13:20:14;11.10;99.90
7572;DHT22;3827;49.928;8.548;2023-04-01T13:22:51;11.10;99.90
7572;DHT22;3827;49.928;8.548;2023-04-01T13:25:26;11.20;99.90
7572;DHT22;3827;49.928;8.548;2023-04-01T13:28:01;11.30;99.90
7572;DHT22;3827;49.928;8.548;2023-04-01T13:30:34;11.50;99.90
7572;DHT22;3827;49.928;8.548;2023-04-01T13:33:14;11.50;99.90
7572;DHT22;3827;49.928;8.548;2023-04-01T13:35:48;11.50;99.90
7572;DHT22;3827;49.928;8.548;2023-04-01T13:38:43;11.60;99.90
7572;DHT22;3827;49.928;8.548;2023-04-01T13:41:22;11.80;99.90
7572;DHT22;3827;49.928;8.548;2023-04-01T13:44:00;11.80;99.90
7572;DHT22;3827;49.928;8.548;2023-04-01T13:50:23;11.80;99.90
7572;DHT22;3827;49.928;8.548;2023-04-01T13:53:11;11.90;99.90
7572;DHT22;3827;49.928;8.548;2023-04-01T13:55:55;11.90;99.90
7572;DHT22;3827;49.928;8.548;2023-04-01T13:58:44;11.90;99.90
7572;DHT22;3827;49.928;8.548;2023-04-01T14:01:20;11.90;99.90
7572;DHT22;3827;49.928;8.548;2023-04-01T14:06:57;12.10;99.90
7572;DHT22;3827;49.928;8.548;2023-04-01T14:09:44;12.20;99.90
7572;DHT22;3827;49.928;8.548;2023-04-01T14:12:25;12.20;99.90
7572;DHT22;3827;49.928;8.548;2023-04-01T14:18:04;12.20;99.90
7572;DHT22;3827;49.928;8.548;2023-04-01T14:20:40;12.40;46.10
7572;DHT22;3827;49.928;8.548;2023-04-01T14:23:23;12.50;1.00
7572;DHT22;3827;49.928;8.548;2023-04-01T14:29:10;12.60;1.00
7572;DHT22;3827;49.928;8.548;2023-04-01T14:31:51;12.70;1.00
7572;DHT22;3827;49.928;8.548;2023-04-01T14:34:28;12.70;99.90
7572;DHT22;3827;49.928;8.548;2023-04-01T14:37:15;12.70;1.00
7572;DHT22;3827;49.928;8.548;2023-04-01T14:40:21;12.60;99.90
7572;DHT22;3827;49.928;8.548;2023-04-01T14:43:03;12.50;1.00
7572;DHT22;3827;49.928;8.548;2023-04-01T14:45:52;12.20;99.90
7572;DHT22;3827;49.928;8.548;2023-04-01T14:48:30;12.20;1.00
7572;DHT22;3827;49.928;8.548;2023-04-01T14:51:04;12.10;99.90
7572;DHT22;3827;49.928;8.548;2023-04-01T14:53:38;12.10;99.90
7572;DHT22;3827;49.928;8.548;2023-04-01T14:56:08;12.00;1.00
7572;DHT22;3827;49.928;8.548;2023-04-01T14:58:43;12.00;1.00
7572;DHT22;3827;49.928;8.548;2023-04-01T15:01:23;12.00;99.90
7572;DHT22;3827;49.928;8.548;2023-04-01T15:03:59;12.00;99.90
7572;DHT22;3827;49.928;8.548;2023-04-01T15:06:59;11.90;99.90
7572;DHT22;3827;49.928;8.548;2023-04-01T15:09:35;11.90;1.00
7572;DHT22;3827;49.928;8.548;2023-04-01T15:12:17;11.90;99.90
7572;DHT22;3827;49.928;8.548;2023-04-01T15:15:04;11.90;99.90
7572;DHT22;3827;49.928;8.548;2023-04-01T15:17:43;12.00;1.00
7572;DHT22;3827;49.928;8.548;2023-04-01T15:20:22;12.00;1.00
7572;DHT22;3827;49.928;8.548;2023-04-01T15:23:02;11.90;1.00
7572;DHT22;3827;49.928;8.548;2023-04-01T15:25:43;11.80;1.00
7572;DHT22;3827;49.928;8.548;2023-04-01T15:28:22;11.80;99.90
7572;DHT22;3827;49.928;8.548;2023-04-01T15:30:56;11.70;99.90
7572;DHT22;3827;49.928;8.548;2023-04-01T15:33:40;11.70;99.90
7572;DHT22;3827;49.928;8.548;2023-04-01T15:36:20;11.70;99.90
7572;DHT22;3827;49.928;8.548;2023-04-01T15:38:53;11.70;99.90
7572;DHT22;3827;49.928;8.548;2023-04-01T15:41:27;11.80;99.90
7572;DHT22;3827;49.928;8.548;2023-04-01T15:44:01;11.80;99.90
7572;DHT22;3827;49.928;8.548;2023-04-01T15:46:43;11.90;99.90
7572;DHT22;3827;49.928;8.548;2023-04-01T15:49:31;11.90;1.00
7572;DHT22;3827;49.928;8.548;2023-04-01T15:52:06;12.00;1.00
7572;DHT22;3827;49.928;8.548;2023-04-01T15:57:37;11.90;1.00
7572;DHT22;3827;49.928;8.548;2023-04-01T16:00:25;11.90;1.00
7572;DHT22;3827;49.928;8.548;2023-04-01T16:03:12;11.90;1.00
7572;DHT22;3827;49.928;8.548;2023-04-01T16:05:55;12.00;99.90
7572;DHT22;3827;49.928;8.548;2023-04-01T16:09:02;12.00;99.90
7572;DHT22;3827;49.928;8.548;2023-04-01T16:11:40;12.00;94.10
7572;DHT22;3827;49.928;8.548;2023-04-01T16:14:18;11.90;1.00
7572;DHT22;3827;49.928;8.548;2023-04-01T16:17:01;11.90;1.00
7572;DHT22;3827;49.928;8.548;2023-04-01T16:19:41;11.90;99.90
7572;DHT22;3827;49.928;8.548;2023-04-01T16:22:18;11.80;1.00
7572;DHT22;3827;49.928;8.548;2023-04-01T16:24:50;11.60;1.00
7572;DHT22;3827;49.928;8.548;2023-04-01T16:27:25;11.50;1.00
7572;DHT22;3827;49.928;8.548;2023-04-01T16:29:58;11.40;1.00
7572;DHT22;3827;49.928;8.548;2023-04-01T16:32:37;11.50;1.00
7572;DHT22;3827;49.928;8.548;2023-04-01T16:35:23;11.70;1.00
7572;DHT22;3827;49.928;8.548;2023-04-01T16:37:55;11.70;1.00
7572;DHT22;3827;49.928;8.548;2023-04-01T16:40:37;12.10;1.00
7572;DHT22;3827;49.928;8.548;2023-04-01T16:43:13;11.70;1.00
7572;DHT22;3827;49.928;8.548;2023-04-01T16:45:45;11.80;38.20
7572;DHT22;3827;49.928;8.548;2023-04-01T16:48:21;11.70;99.90
7572;DHT22;3827;49.928;8.548;2023-04-01T16:50:55;11.70;5.10
7572;DHT22;3827;49.928;8.548;2023-04-01T16:53:34;11.70;99.90
7572;DHT22;3827;49.928;8.548;2023-04-01T16:56:11;11.60;1.00
7572;DHT22;3827;49.928;8.548;2023-04-01T16:58:42;11.60;99.90
7572;DHT22;3827;49.928;8.548;2023-04-01T17:01:13;11.60;1.00
7572;DHT22;3827;49.928;8.548;2023-04-01T17:03:45;11.50;99.90
7572;DHT22;3827;49.928;8.548;2023-04-01T17:06:23;11.50;1.00
7572;DHT22;3827;49.928;8.548;2023-04-01T17:09:02;11.40;1.00
7572;DHT22;3827;49.928;8.548;2023-04-01T17:11:35;11.50;1.00
7572;DHT22;3827;49.928;8.548;2023-04-01T17:14:14;11.40;35.80
7572;DHT22;3827;49.928;8.548;2023-04-01T17:17:12;11.40;77.20
7572;DHT22;3827;49.928;8.548;2023-04-01T17:19:56;11.20;1.00
7572;DHT22;3827;49.928;8.548;2023-04-01T17:22:32;11.20;99.90
7572;DHT22;3827;49.928;8.548;2023-04-01T17:25:51;11.20;99.90
7572;DHT22;3827;49.928;8.548;2023-04-01T17:28:29;11.20;1.00
7572;DHT22;3827;49.928;8.548;2023-04-01T17:31:05;11.30;1.00
7572;DHT22;3827;49.928;8.548;2023-04-01T17:34:06;11.20;1.00
7572;DHT22;3827;49.928;8.548;2023-04-01T17:36:46;11.10;1.00
7572;DHT22;3827;49.928;8.548;2023-04-01T17:39:40;11.20;1.00
7572;DHT22;3827;49.928;8.548;2023-04-01T17:42:14;11.10;1.00
7572;DHT22;3827;49.928;8.548;2023-04-01T17:44:49;11.10;1.00
7572;DHT22;3827;49.928;8.548;2023-04-01T17:47:31;11.10;99.90
7572;DHT22;3827;49.928;8.548;2023-04-01T17:50:10;11.10;99.90
7572;DHT22;3827;49.928;8.548;2023-04-01T17:52:45;11.10;1.00
7572;DHT22;3827;49.928;8.548;2023-04-01T17:55:46;11.10;1.00
7572;DHT22;3827;49.928;8.548;2023-04-01T17:58:18;11.00;99.90
7572;DHT22;3827;49.928;8.548;2023-04-01T18:01:05;11.00;99.90
7572;DHT22;3827;49.928;8.548;2023-04-01T18:06:41;11.00;1.00
7572;DHT22;3827;49.928;8.548;2023-04-01T18:09:21;10.90;30.80
7572;DHT22;3827;49.928;8.548;2023-04-01T18:11:57;10.90;99.90
7572;DHT22;3827;49.928;8.548;2023-04-01T18:17:41;10.80;99.90
7572;DHT22;3827;49.928;8.548;2023-04-01T18:20:26;10.90;5.00
7572;DHT22;3827;49.928;8.548;2023-04-01T18:22:58;10.80;99.90
7572;DHT22;3827;49.928;8.548;2023-04-01T18:25:32;10.80;99.90
7572;DHT22;3827;49.928;8.548;2023-04-01T18:28:17;10.80;99.90
7572;DHT22;3827;49.928;8.548;2023-04-01T18:30:51;10.70;1.00
7572;DHT22;3827;49.928;8.548;2023-04-01T18:33:23;10.70;1.00
7572;DHT22;3827;49.928;8.548;2023-04-01T18:35:56;10.60;1.00
7572;DHT22;3827;49.928;8.548;2023-04-01T18:38:28;10.50;1.00
7572;DHT22;3827;49.928;8.548;2023-04-01T18:41:10;10.50;1.00
7572;DHT22;3827;49.928;8.548;2023-04-01T18:43:43;10.50;1.00